Time;durP1;ratioP1;P1;durP2;ratioP2;P2;SDS_P1;SDS_P2;PMS_P1;PMS_P2;Temp;Humidity;BMP_temperature;BMP_pressure;BME280_temperature;BME280_humidity;BME280_pressure;Samples;Min_cycle;Max_cycle;Signal;HPM_P1;HPM_P2
2022/10/03 00:02:06;;;;;;;15.70;2.03;;;;;;;18.52;nan;101640.47;6247344;23;20411;-88
2022/10/03 00:05:03;;;;;;;12.03;1.60;;;;;;;18.48;nan;101632.81;6221160;23;20572;-88
2022/10/03 00:07:49;;;;;;;16.67;1.27;;;;;;;18.46;nan;101632.22;6221651;23;20414;-87
2022/10/03 00:10:50;;;;;;;13.73;1.83;;;;;;;18.42;nan;101629.06;6247705;23;20410;-88
2022/10/03 00:13:26;;;;;;;22.90;2.50;;;;;;;18.38;nan;101622.25;6220798;23;20518;-88
2022/10/03 00:16:04;;;;;;;14.20;2.00;;;;;;;18.39;nan;101629.50;6196717;23;20418;-88
2022/10/03 00:18:47;;;;;;;8.20;1.60;;;;;;;18.36;nan;101629.94;6197226;23;20425;-88
2022/10/03 00:21:34;;;;;;;15.23;2.27;;;;;;;18.37;nan;101639.94;6162436;23;20481;-89
2022/10/03 00:24:29;;;;;;;16.77;1.43;;;;;;;18.33;nan;101641.44;6196844;23;20464;-88
2022/10/03 00:26:59;;;;;;;11.87;1.73;;;;;;;18.34;nan;101645.91;6225127;23;20768;-88
2022/10/03 00:29:49;;;;;;;12.90;1.67;;;;;;;18.32;nan;101650.81;6221369;23;20482;-88
2022/10/03 00:32:22;;;;;;;7.30;2.30;;;;;;;18.27;nan;101647.91;6246951;23;20406;-88
2022/10/03 00:34:50;;;;;;;7.00;1.90;;;;;;;18.24;nan;101642.81;6220538;23;20945;-88
2022/10/03 00:37:37;;;;;;;9.63;1.83;;;;;;;18.22;nan;101633.88;6247173;23;20403;-89
2022/10/03 00:40:22;;;;;;;8.40;1.30;;;;;;;18.18;nan;101627.06;6245192;23;20414;-88
2022/10/03 00:43:01;;;;;;;8.17;1.60;;;;;;;18.18;nan;101638.16;6195642;23;20405;-88
2022/10/03 00:45:55;;;;;;;16.20;2.10;;;;;;;18.18;nan;101639.00;6221342;23;20498;-88
2022/10/03 00:48:34;;;;;;;14.57;2.20;;;;;;;18.21;nan;101648.78;6208966;23;20411;-87
2022/10/03 00:51:09;;;;;;;19.87;1.47;;;;;;;18.23;nan;101649.41;6220976;23;20897;-88
2022/10/03 00:53:43;;;;;;;12.93;3.10;;;;;;;18.22;nan;101639.41;6220341;23;20765;-89
2022/10/03 00:56:47;;;;;;;9.60;1.70;;;;;;;18.23;nan;101649.41;6221054;23;20476;-89
2022/10/03 00:59:51;;;;;;;6.57;1.87;;;;;;;18.19;nan;101639.84;6245845;23;20988;-89
2022/10/03 01:02:24;;;;;;;21.47;1.40;;;;;;;18.16;nan;101632.84;6200299;23;20489;-89
2022/10/03 01:05:03;;;;;;;10.37;1.20;;;;;;;18.12;nan;101631.56;6195992;23;20489;-89
2022/10/03 01:07:49;;;;;;;11.70;1.60;;;;;;;18.12;nan;101633.50;6197451;23;20406;-88
2022/10/03 01:10:27;;;;;;;7.23;0.97;;;;;;;18.08;nan;101646.94;6219018;23;20418;-89
2022/10/03 01:13:25;;;;;;;6.27;1.60;;;;;;;18.09;nan;101656.09;6195118;23;20947;-88
2022/10/03 01:16:16;;;;;;;11.47;1.90;;;;;;;18.07;nan;101658.22;6216804;23;20419;-88
2022/10/03 01:18:51;;;;;;;19.70;2.10;;;;;;;18.03;nan;101640.38;6190624;23;20553;-88
2022/10/03 01:21:27;;;;;;;10.23;1.53;;;;;;;18.05;nan;101649.31;6191372;23;20481;-88
2022/10/03 01:24:14;;;;;;;8.10;2.00;;;;;;;18.05;nan;101643.75;6190653;23;20550;-87
2022/10/03 01:26:58;;;;;;;18.57;1.73;;;;;;;18.05;nan;101643.75;6190063;23;20910;-90
2022/10/03 01:33:02;;;;;;;16.43;1.70;;;;;;;18.02;nan;101655.28;6216701;23;20848;-88
2022/10/03 01:36:18;;;;;;;8.87;1.67;;;;;;;17.99;nan;101652.94;6151473;23;20419;-88
2022/10/03 01:39:03;;;;;;;10.73;1.47;;;;;;;17.98;nan;101651.25;6100754;23;20481;-88
2022/10/03 01:42:01;;;;;;;8.83;1.33;;;;;;;17.94;nan;101645.28;6100886;23;20411;-88
2022/10/03 01:44:40;;;;;;;9.20;1.30;;;;;;;17.93;nan;101651.91;6124565;23;20972;-88
2022/10/03 01:47:26;;;;;;;8.47;1.57;;;;;;;17.92;nan;101645.50;6100460;23;21003;-89
2022/10/03 01:50:20;;;;;;;6.43;1.37;;;;;;;17.92;nan;101642.75;6124553;23;20449;-88
2022/10/03 01:53:28;;;;;;;5.73;1.70;;;;;;;17.92;nan;101644.66;6094722;23;20913;-88
2022/10/03 01:56:05;;;;;;;12.83;1.70;;;;;;;17.90;nan;101636.59;6079843;23;20445;-89
2022/10/03 01:58:51;;;;;;;9.60;2.20;;;;;;;17.88;nan;101627.69;6100558;23;20485;-88
2022/10/03 02:01:30;;;;;;;7.73;1.43;;;;;;;17.85;nan;101627.28;6075948;23;20402;-88
2022/10/03 02:04:06;;;;;;;5.93;1.80;;;;;;;17.84;nan;101629.19;6077589;23;20496;-88
2022/10/03 02:07:16;;;;;;;6.43;1.40;;;;;;;17.82;nan;101638.78;6101729;23;20402;-95
2022/10/03 02:09:50;;;;;;;8.13;1.50;;;;;;;17.78;nan;101635.59;6128846;23;20800;-89
2022/10/03 02:12:21;;;;;;;10.57;1.60;;;;;;;17.79;nan;101640.06;6166293;23;20495;-87
2022/10/03 02:15:21;;;;;;;8.93;1.47;;;;;;;17.77;nan;101649.63;6208316;23;20584;-87
2022/10/03 02:18:13;;;;;;;9.43;2.00;;;;;;;17.75;nan;101644.31;6100153;23;20534;-88
2022/10/03 02:20:50;;;;;;;7.37;1.27;;;;;;;17.73;nan;101643.69;6076397;23;20485;-88
2022/10/03 02:23:36;;;;;;;9.27;1.87;;;;;;;17.68;nan;101640.75;6077172;23;20485;-89
2022/10/03 02:26:31;;;;;;;8.13;1.40;;;;;;;17.68;nan;101642.66;6079046;23;20474;-88
2022/10/03 02:29:23;;;;;;;7.57;2.17;;;;;;;17.66;nan;101647.56;6219123;23;20473;-89
2022/10/03 02:32:09;;;;;;;8.70;1.77;;;;;;;17.65;nan;101668.84;6199475;23;20410;-87
2022/10/03 02:35:13;;;;;;;6.53;1.73;;;;;;;17.63;nan;101668.16;6220211;23;20513;-88
2022/10/03 02:38:12;;;;;;;6.57;1.30;;;;;;;17.58;nan;101670.72;6244570;23;20406;-88
2022/10/03 02:41:03;;;;;;;17.30;2.90;;;;;;;17.54;nan;101664.78;6219342;23;20505;-88
2022/10/03 02:43:52;;;;;;;9.33;1.43;;;;;;;17.56;nan;101661.78;6195562;23;20486;-88
2022/10/03 02:46:45;;;;;;;7.13;1.60;;;;;;;17.59;nan;101669.66;6220722;23;20902;-88
2022/10/03 02:49:12;;;;;;;5.43;1.60;;;;;;;17.59;nan;101658.59;6218750;23;20537;-88
2022/10/03 02:51:58;;;;;;;10.67;1.63;;;;;;;17.60;nan;101658.38;6219705;23;20846;-88
2022/10/03 02:54:46;;;;;;;5.90;1.57;;;;;;;17.62;nan;101649.88;6194596;23;20524;-88
2022/10/03 02:57:38;;;;;;;7.00;1.80;;;;;;;17.57;nan;101638.63;6245404;23;20411;-89
2022/10/03 03:00:20;;;;;;;6.83;2.00;;;;;;;17.54;nan;101637.13;6219514;23;20486;-88
2022/10/03 03:03:06;;;;;;;11.40;1.63;;;;;;;17.57;nan;101641.38;6222338;23;20541;-88
2022/10/03 03:05:58;;;;;;;13.23;2.27;;;;;;;17.57;nan;101653.28;6245192;23;20905;-88
2022/10/03 03:08:42;;;;;;;10.57;2.70;;;;;;;17.58;nan;101657.75;6218541;23;20485;-88
2022/10/03 03:11:31;;;;;;;11.30;1.73;;;;;;;17.53;nan;101640.97;6219794;23;20474;-88
2022/10/03 03:14:24;;;;;;;12.63;2.13;;;;;;;17.56;nan;101654.34;6219111;23;20446;-88
2022/10/03 03:17:10;;;;;;;9.50;1.83;;;;;;;17.57;nan;101653.28;6219722;23;20748;-88
2022/10/03 03:20:10;;;;;;;14.63;3.53;;;;;;;17.60;nan;101663.06;6197297;23;20482;-88
2022/10/03 03:23:06;;;;;;;9.10;1.60;;;;;;;17.62;nan;101658.16;6099823;23;20513;-88
2022/10/03 03:26:14;;;;;;;6.00;1.50;;;;;;;17.61;nan;101654.56;6099989;23;20505;-89
2022/10/03 03:29:00;;;;;;;7.73;1.60;;;;;;;17.62;nan;101644.34;6099720;23;20526;-89
2022/10/03 03:31:42;;;;;;;9.90;2.10;;;;;;;17.60;nan;101641.78;6121755;23;20486;-88
2022/10/03 03:34:16;;;;;;;21.70;2.30;;;;;;;17.60;nan;101638.19;6076255;23;20516;-88
2022/10/03 03:37:03;;;;;;;21.53;1.87;;;;;;;17.55;nan;101627.78;6123719;23;20490;-88
2022/10/03 03:39:39;;;;;;;16.10;2.10;;;;;;;17.57;nan;101636.69;6101997;23;20969;-89
2022/10/03 03:42:12;;;;;;;8.23;1.60;;;;;;;17.54;nan;101628.00;6123934;23;20561;-88
2022/10/03 03:45:20;;;;;;;6.90;1.70;;;;;;;17.48;nan;101620.59;6099396;23;20418;-88
2022/10/03 03:48:22;;;;;;;9.93;1.90;;;;;;;17.49;nan;101625.91;6042100;23;20899;-88
2022/10/03 03:51:20;;;;;;;10.40;1.53;;;;;;;17.49;nan;101633.34;6065825;23;20412;-88
2022/10/03 03:54:18;;;;;;;8.03;2.30;;;;;;;17.47;nan;101635.47;6041634;23;20499;-88
2022/10/03 03:57:04;;;;;;;9.83;1.90;;;;;;;17.45;nan;101637.59;6041876;23;20419;-88
2022/10/03 03:59:43;;;;;;;16.33;1.70;;;;;;;17.42;nan;101626.97;6133839;23;20491;-88
2022/10/03 04:02:39;;;;;;;9.80;2.20;;;;;;;17.40;nan;101623.59;6135429;23;20487;-89
2022/10/03 04:05:44;;;;;;;6.80;1.77;;;;;;;17.38;nan;101615.50;6161994;23;20536;-89
2022/10/03 04:08:33;;;;;;;10.70;1.53;;;;;;;17.39;nan;101624.66;6182402;23;20436;-88
2022/10/03 04:11:19;;;;;;;11.27;2.30;;;;;;;17.37;nan;101626.78;6158001;23;20539;-88
2022/10/03 04:14:23;;;;;;;12.57;1.90;;;;;;;17.35;nan;101620.63;6157963;23;21014;-88
2022/10/03 04:20:09;;;;;;;10.10;1.77;;;;;;;17.36;nan;101616.78;6182597;23;20400;-88
2022/10/03 04:23:25;;;;;;;8.17;2.07;;;;;;;17.32;nan;101610.03;6184900;23;20548;-87
2022/10/03 04:26:29;;;;;;;9.80;2.23;;;;;;;17.33;nan;101618.06;6218879;23;20410;-88
2022/10/03 04:29:28;;;;;;;12.73;2.27;;;;;;;17.34;nan;101608.72;6196871;23;20464;-88
2022/10/03 04:32:09;;;;;;;14.10;1.73;;;;;;;17.34;nan;101617.00;6194659;23;20486;-88
2022/10/03 04:34:42;;;;;;;12.33;2.53;;;;;;;17.34;nan;101613.38;6244797;23;20446;-88
2022/10/03 04:37:23;;;;;;;16.67;2.10;;;;;;;17.32;nan;101619.13;6219993;23;20486;-88
2022/10/03 04:40:10;;;;;;;14.70;2.00;;;;;;;17.29;nan;101599.41;6218957;23;20541;-88
2022/10/03 04:43:13;;;;;;;13.27;2.30;;;;;;;17.32;nan;101604.50;6220959;23;20947;-88
2022/10/03 04:46:10;;;;;;;7.93;2.37;;;;;;;17.33;nan;101629.13;6220304;23;20493;-88
2022/10/03 04:48:51;;;;;;;7.53;1.93;;;;;;;17.35;nan;101632.50;6200024;23;20710;-89
2022/10/03 04:51:46;;;;;;;12.03;2.03;;;;;;;17.35;nan;101628.91;6245643;23;20444;-88
2022/10/03 04:54:47;;;;;;;11.73;2.40;;;;;;;17.32;nan;101627.41;6246488;23;20830;-89
2022/10/03 04:57:31;;;;;;;16.20;2.40;;;;;;;17.30;nan;101628.72;6215132;23;20848;-88
2022/10/03 05:00:22;;;;;;;9.20;2.23;;;;;;;17.27;nan;101627.25;6245682;23;20537;-88
2022/10/03 05:03:23;;;;;;;19.13;1.90;;;;;;;17.25;nan;101632.97;6220977;23;20425;-88
2022/10/03 05:05:59;;;;;;;17.03;2.50;;;;;;;17.19;nan;101627.47;6247148;23;20968;-88
2022/10/03 05:08:45;;;;;;;14.93;1.90;;;;;;;17.19;nan;101638.50;6195147;23;20497;-88
2022/10/03 05:11:44;;;;;;;9.40;1.90;;;;;;;17.16;nan;101634.25;6244512;23;20396;-88
2022/10/03 05:14:32;;;;;;;11.33;1.90;;;;;;;17.14;nan;101635.53;6220705;23;20443;-88
2022/10/03 05:17:13;;;;;;;12.13;2.10;;;;;;;17.07;nan;101630.03;6220742;23;20403;-88
2022/10/03 05:19:46;;;;;;;10.10;2.20;;;;;;;17.07;nan;101634.72;6198752;23;20577;-88
2022/10/03 05:22:22;;;;;;;7.00;2.00;;;;;;;17.03;nan;101634.28;6220864;23;20478;-88
2022/10/03 05:24:58;;;;;;;13.90;2.77;;;;;;;17.03;nan;101639.81;6173002;23;20489;-88
2022/10/03 05:27:34;;;;;;;11.93;2.33;;;;;;;17.00;nan;101637.47;6220502;23;20406;-88
2022/10/03 05:30:02;;;;;;;11.33;2.10;;;;;;;17.02;nan;101637.25;6196421;23;20940;-88
2022/10/03 05:33:14;;;;;;;9.20;1.73;;;;;;;17.02;nan;101642.78;6219934;23;20966;-88
2022/10/03 05:35:49;;;;;;;11.63;2.67;;;;;;;17.03;nan;101638.97;6177185;23;20597;-88
2022/10/03 05:38:18;;;;;;;6.97;2.10;;;;;;;17.03;nan;101648.09;6196001;23;20787;-87
2022/10/03 05:40:51;;;;;;;10.03;2.30;;;;;;;17.03;nan;101650.88;6220336;23;20485;-88
2022/10/03 05:44:06;;;;;;;12.50;2.30;;;;;;;17.02;nan;101649.16;6246541;23;20547;-88
2022/10/03 05:46:57;;;;;;;9.17;2.40;;;;;;;17.02;nan;101640.03;6234900;23;20481;-87
2022/10/03 05:49:38;;;;;;;7.00;1.70;;;;;;;17.03;nan;101639.81;6199439;23;20941;-88
2022/10/03 05:52:44;;;;;;;9.77;2.10;;;;;;;17.05;nan;101654.25;6246512;23;20425;-88
2022/10/03 05:55:30;;;;;;;5.43;1.53;;;;;;;17.05;nan;101654.25;6219934;23;21023;-88
2022/10/03 05:58:16;;;;;;;10.23;2.20;;;;;;;17.08;nan;101658.50;6220248;23;20573;-88
2022/10/03 06:01:14;;;;;;;12.03;2.43;;;;;;;17.11;nan;101670.00;6220109;23;20407;-89
2022/10/03 06:03:45;;;;;;;8.40;2.00;;;;;;;17.15;nan;101678.69;6246013;23;20920;-88
2022/10/03 06:07:09;;;;;;;10.50;2.13;;;;;;;17.19;nan;101667.00;6220097;23;20494;-87
2022/10/03 06:10:33;;;;;;;10.27;2.63;;;;;;;17.23;nan;101659.97;6099754;23;20493;-88
2022/10/03 06:13:10;;;;;;;12.07;2.97;;;;;;;17.25;nan;101635.75;6042220;23;20528;-89
2022/10/03 06:16:43;;;;;;;20.20;3.20;;;;;;;17.31;nan;101649.78;6042310;23;20452;-88
2022/10/03 06:19:29;;;;;;;14.30;2.70;;;;;;;17.35;nan;101656.53;5956977;24;20418;-89
2022/10/03 06:22:05;;;;;;;15.10;2.10;;;;;;;17.44;nan;101669.06;5937322;24;20486;-88
2022/10/03 06:25:08;;;;;;;17.30;3.27;;;;;;;17.46;nan;101642.06;5980838;24;20417;-89
2022/10/03 06:28:14;;;;;;;8.97;2.97;;;;;;;17.60;nan;101652.00;5957033;24;20407;-89
2022/10/03 06:30:56;;;;;;;16.90;2.60;;;;;;;17.62;nan;101658.16;5871091;24;20418;-89
2022/10/03 06:33:57;;;;;;;16.27;3.00;;;;;;;17.65;nan;101660.53;5871391;24;20426;-89
2022/10/03 06:36:34;;;;;;;14.73;1.97;;;;;;;17.63;nan;101659.88;5871068;24;20970;-89
2022/10/03 06:39:17;;;;;;;7.50;2.50;;;;;;;17.60;nan;101669.44;5850134;24;20418;-89
2022/10/03 06:42:11;;;;;;;15.80;2.20;;;;;;;17.57;nan;101671.78;5930659;24;20499;-89
2022/10/03 06:44:58;;;;;;;18.07;3.13;;;;;;;17.57;nan;101680.09;5930237;24;20412;-89
2022/10/03 06:47:32;;;;;;;14.17;2.70;;;;;;;17.55;nan;101682.22;5880622;24;20521;-88
2022/10/03 06:50:35;;;;;;;10.00;2.50;;;;;;;17.57;nan;101685.63;6032958;23;20963;-88
2022/10/03 06:53:35;;;;;;;9.97;2.17;;;;;;;17.54;nan;101674.97;6104156;23;20486;-88
2022/10/03 06:56:48;;;;;;;19.60;2.80;;;;;;;17.63;nan;101676.47;6191868;23;20505;-89
2022/10/03 06:59:31;;;;;;;14.33;2.50;;;;;;;17.73;nan;101689.84;6189755;23;20538;-91
2022/10/03 07:02:37;;;;;;;9.90;2.20;;;;;;;17.82;nan;101697.69;6190259;23;20408;-89
2022/10/03 07:05:13;;;;;;;17.80;2.63;;;;;;;17.91;nan;101699.13;6190015;23;20526;-85
2022/10/03 07:08:17;;;;;;;13.57;2.40;;;;;;;18.01;nan;101704.22;6189501;23;20403;-84
2022/10/03 07:10:53;;;;;;;32.03;3.57;;;;;;;18.08;nan;101710.56;6164767;23;20410;-85
2022/10/03 07:13:44;;;;;;;35.13;4.30;;;;;;;18.18;nan;101719.25;6215188;23;20762;-85
2022/10/03 07:16:22;;;;;;;55.03;4.37;;;;;;;18.27;nan;101719.84;6219678;23;20525;-90
2022/10/03 07:19:06;;;;;;;47.83;4.73;;;;;;;18.34;nan;101720.66;6220059;23;20464;-88
2022/10/03 07:21:50;;;;;;;35.60;4.30;;;;;;;18.42;nan;101728.72;6195284;23;20489;-90
2022/10/03 07:24:43;;;;;;;29.63;4.30;;;;;;;18.51;nan;101729.28;6243604;23;20917;-88
2022/10/03 07:27:31;;;;;;;40.70;4.63;;;;;;;18.60;nan;101723.31;6197925;23;20422;-88
2022/10/03 07:30:04;;;;;;;25.43;3.93;;;;;;;18.68;nan;101724.94;6194865;23;20497;-88
2022/10/03 07:33:02;;;;;;;34.33;4.40;;;;;;;18.79;nan;101723.38;6194598;23;20399;-89
2022/10/03 07:41:51;;;;;;;21.70;3.37;;;;;;;19.20;nan;101742.25;6245361;23;20913;-89
2022/10/03 07:44:58;;;;;;;18.80;3.50;;;;;;;19.31;nan;101750.66;6245822;23;20410;-88
2022/10/03 07:48:12;;;;;;;24.50;3.50;;;;;;;19.46;nan;101741.13;6245397;23;20410;-89
2022/10/03 07:55:00;;;;;;;20.13;3.93;;;;;;;19.83;nan;101736.50;6245695;23;20405;-89
2022/10/03 07:58:43;;;;;;;32.80;4.53;;;;;;;20.01;nan;101740.13;6133420;23;20440;-89
2022/10/03 08:05:54;;;;;;;24.30;4.67;;;;;;;20.26;nan;101739.19;6153134;23;20397;-89
2022/10/03 08:09:03;;;;;;;27.77;3.93;;;;;;;20.42;nan;101738.56;6139115;23;20786;-88
2022/10/03 08:12:51;;;;;;;22.40;5.27;;;;;;;20.49;nan;101747.66;6133332;23;20450;-88
2022/10/03 08:15:52;;;;;;;32.67;3.87;;;;;;;20.64;nan;101750.84;6152756;23;20437;-89
2022/10/03 08:18:55;;;;;;;29.13;4.83;;;;;;;20.73;nan;101764.44;6153629;23;20396;-89
2022/10/03 08:21:48;;;;;;;29.20;4.80;;;;;;;20.83;nan;101761.91;6183603;23;20401;-88
2022/10/03 08:24:57;;;;;;;29.77;4.33;;;;;;;20.94;nan;101766.69;6224843;23;20394;-88
2022/10/03 08:27:51;;;;;;;35.37;5.80;;;;;;;21.02;nan;101763.53;6247855;23;20370;-90
2022/10/03 08:30:22;;;;;;;33.90;4.63;;;;;;;21.12;nan;101762.97;6247274;23;20411;-89
2022/10/03 08:33:18;;;;;;;39.00;5.50;;;;;;;21.21;nan;101759.59;6246125;23;20542;-89
2022/10/03 08:36:28;;;;;;;35.43;5.00;;;;;;;21.30;nan;101762.91;6220446;23;20438;-86
2022/10/03 08:39:33;;;;;;;29.80;4.40;;;;;;;21.37;nan;101761.69;6220559;23;20418;-89
2022/10/03 08:42:10;;;;;;;35.07;5.17;;;;;;;21.48;nan;101762.78;6124564;23;20756;-88
2022/10/03 08:45:16;;;;;;;36.40;6.37;;;;;;;21.57;nan;101771.59;6100558;23;20410;-88
2022/10/03 08:48:16;;;;;;;27.87;4.40;;;;;;;21.66;nan;101765.44;6125114;23;20410;-87
2022/10/03 08:50:53;;;;;;;24.33;4.63;;;;;;;21.70;nan;101749.97;6101320;23;20410;-89
2022/10/03 08:53:55;;;;;;;37.20;5.10;;;;;;;21.77;nan;101765.69;6124887;23;20433;-87
2022/10/03 08:56:57;;;;;;;42.97;5.80;;;;;;;21.80;nan;101768.81;6114885;23;20457;-87
2022/10/03 08:59:56;;;;;;;36.20;5.60;;;;;;;21.92;nan;101779.97;6103813;23;20417;-87
2022/10/03 09:02:38;;;;;;;39.07;6.43;;;;;;;22.03;nan;101785.53;6124479;23;20398;-87
2022/10/03 09:05:23;;;;;;;28.73;5.90;;;;;;;22.09;nan;101785.66;6099849;23;20481;-86
2022/10/03 09:08:09;;;;;;;51.97;6.20;;;;;;;22.18;nan;101792.53;6100441;23;20417;-87
2022/10/03 09:11:00;;;;;;;38.30;6.73;;;;;;;22.26;nan;101792.16;6124904;23;20427;-86
2022/10/03 09:14:04;;;;;;;40.43;6.10;;;;;;;22.37;nan;101794.91;6100428;23;20403;-87
2022/10/03 09:16:50;;;;;;;35.30;6.00;;;;;;;22.50;nan;101788.22;6150751;23;20450;-86
2022/10/03 09:19:40;;;;;;;39.10;6.90;;;;;;;22.62;nan;101800.16;6190534;23;20415;-87
2022/10/03 09:22:38;;;;;;;32.83;6.40;;;;;;;22.75;nan;101808.22;6190325;23;20404;-87
2022/10/03 09:25:22;;;;;;;45.50;6.87;;;;;;;22.87;nan;101804.56;6190246;23;20408;-87
2022/10/03 09:28:11;;;;;;;29.70;5.43;;;;;;;22.94;nan;101805.25;6189924;23;20422;-87
2022/10/03 09:30:45;;;;;;;34.70;6.00;;;;;;;22.92;nan;101796.28;6188741;23;20487;-86
2022/10/03 09:33:15;;;;;;;35.37;5.83;;;;;;;22.95;nan;101807.78;6163859;23;20419;-87
2022/10/03 09:35:48;;;;;;;46.47;7.30;;;;;;;22.96;nan;101817.84;6189895;23;20427;-87
2022/10/03 09:38:39;;;;;;;28.13;5.30;;;;;;;22.93;nan;101809.13;6215863;23;20403;-86
2022/10/03 09:41:45;;;;;;;37.23;6.30;;;;;;;22.91;nan;101805.75;6190187;23;20411;-86
2022/10/03 09:44:52;;;;;;;32.27;4.80;;;;;;;22.95;nan;101818.94;6094823;23;20419;-86
2022/10/03 09:47:38;;;;;;;50.40;6.73;;;;;;;23.16;nan;101813.75;6013919;23;20469;-87
2022/10/03 09:50:18;;;;;;;26.23;4.70;;;;;;;23.30;nan;101818.75;6037680;23;20409;-86
2022/10/03 09:53:12;;;;;;;42.83;5.83;;;;;;;23.44;nan;101827.66;6037601;23;20833;-87
2022/10/03 09:55:42;;;;;;;37.07;4.97;;;;;;;23.47;nan;101817.94;6036844;23;20445;-86
2022/10/03 09:58:38;;;;;;;22.83;5.20;;;;;;;23.42;nan;101822.31;6036543;23;20413;-87
2022/10/03 10:01:09;;;;;;;43.17;7.73;;;;;;;23.40;nan;101827.31;6037615;23;20713;-86
2022/10/03 10:03:46;;;;;;;29.93;4.80;;;;;;;23.39;nan;101831.19;6037238;23;20412;-87
2022/10/03 10:06:18;;;;;;;31.53;5.77;;;;;;;23.42;nan;101835.44;6037564;23;20802;-87
2022/10/03 10:09:27;;;;;;;31.90;5.43;;;;;;;23.50;nan;101837.78;6037113;23;20496;-87
2022/10/03 10:12:02;;;;;;;31.43;4.83;;;;;;;23.56;nan;101838.75;6060589;23;20417;-87
2022/10/03 10:15:24;;;;;;;38.43;6.00;;;;;;;23.66;nan;101834.22;6035441;23;20818;-87
2022/10/03 10:29:30;;;;;;;24.57;4.63;;;;;;;24.54;nan;101832.41;6067784;23;20387;-92
2022/10/03 10:39:14;;;;;;;22.73;4.30;;;;;;;25.04;nan;101836.94;6066894;23;20498;-90
2022/10/03 10:49:01;;;;;;;35.60;4.83;;;;;;;25.42;nan;101842.34;6067299;23;20423;-92
2022/10/03 10:52:23;;;;;;;29.93;5.60;;;;;;;25.44;nan;101834.53;6067238;23;20453;-92
2022/10/03 11:02:58;;;;;;;25.20;4.07;;;;;;;25.34;nan;101837.25;6217017;23;20434;-93
2022/10/03 11:06:06;;;;;;;32.90;5.37;;;;;;;25.41;nan;101826.66;6142790;23;20490;-91
2022/10/03 11:16:27;;;;;;;33.90;5.80;;;;;;;25.79;nan;101850.81;6216175;23;20940;-91
2022/10/03 11:26:21;;;;;;;35.73;4.70;;;;;;;26.19;nan;101842.94;6216636;23;20752;-92
2022/10/03 11:36:41;;;;;;;28.60;5.20;;;;;;;26.55;nan;101838.41;6216667;23;20418;-92
2022/10/03 11:39:51;;;;;;;36.43;6.07;;;;;;;26.63;nan;101843.47;6167312;23;20411;-90
2022/10/03 11:42:57;;;;;;;27.30;4.90;;;;;;;26.70;nan;101816.88;6191079;23;20890;-91
2022/10/03 11:45:54;;;;;;;21.50;4.40;;;;;;;26.78;nan;101816.31;6190407;23;20913;-91
2022/10/03 11:48:58;;;;;;;22.43;4.67;;;;;;;26.86;nan;101819.72;6190747;23;20790;-92
2022/10/03 11:58:52;;;;;;;26.97;4.60;;;;;;;27.17;nan;101815.88;6218352;23;20414;-92
2022/10/03 12:02:01;;;;;;;28.33;4.53;;;;;;;27.34;nan;101830.47;6171326;23;20408;-91
2022/10/03 12:08:55;;;;;;;828.67;638.03;;;;;;;27.31;nan;101799.34;6218477;23;20375;-93
2022/10/03 12:15:51;;;;;;;364.73;235.47;;;;;;;27.58;nan;101822.38;6239453;22;20422;-93
2022/10/03 12:22:34;;;;;;;49.30;15.90;;;;;;;27.72;nan;101817.03;6249266;23;20454;-91
2022/10/03 12:25:22;;;;;;;40.80;10.30;;;;;;;27.80;nan;101824.91;6197024;23;20790;-91
2022/10/03 12:28:38;;;;;;;38.97;6.33;;;;;;;27.82;nan;101817.03;6222257;23;20415;-91
2022/10/03 12:31:38;;;;;;;31.93;5.80;;;;;;;27.86;nan;101801.28;6124619;23;20921;-91
2022/10/03 12:41:40;;;;;;;36.57;6.00;;;;;;;28.01;nan;101797.59;6127198;23;20389;-92
2022/10/03 12:48:34;;;;;;;31.50;4.80;;;;;;;28.24;nan;101782.09;6127148;23;20386;-92
2022/10/03 12:51:43;;;;;;;32.97;6.37;;;;;;;28.36;nan;101771.34;6111540;23;20474;-93
2022/10/03 12:58:19;;;;;;;40.43;5.97;;;;;;;28.65;nan;101779.94;6126649;23;20433;-91
2022/10/03 13:01:22;;;;;;;35.30;5.67;;;;;;;28.76;nan;101775.94;6125994;23;20424;-93
2022/10/03 13:03:58;;;;;;;40.07;6.53;;;;;;;28.85;nan;101769.44;6126552;23;20406;-92
2022/10/03 13:10:36;;;;;;;36.30;5.40;;;;;;;29.10;nan;101776.00;6248451;23;20510;-93
2022/10/03 13:21:29;;;;;;;40.37;8.23;;;;;;;29.16;nan;101746.69;6218085;23;20524;-93
2022/10/03 13:28:31;;;;;;;42.30;6.27;;;;;;;29.34;nan;101743.13;6218083;23;20410;-92
2022/10/03 13:38:47;;;;;;;32.13;6.57;;;;;;;29.51;nan;101752.03;6217456;23;20411;-92
2022/10/03 13:45:02;;;;;;;25.00;5.30;;;;;;;29.43;nan;101732.13;6218073;23;20367;-92
2022/10/03 13:48:25;;;;;;;56.90;6.23;;;;;;;29.62;nan;101747.13;6143301;23;20425;-92
2022/10/03 13:51:20;;;;;;;30.40;4.70;;;;;;;29.71;nan;101741.69;6192379;23;20403;-93
2022/10/03 13:54:27;;;;;;;26.83;4.20;;;;;;;29.74;nan;101747.56;6191095;23;20411;-92
2022/10/03 14:01:04;;;;;;;32.33;5.43;;;;;;;29.72;nan;101744.19;6217655;23;20375;-92
2022/10/03 14:07:34;;;;;;;38.30;5.90;;;;;;;29.61;nan;101736.16;6217659;23;20398;-93
2022/10/03 14:10:58;;;;;;;27.67;4.43;;;;;;;29.55;nan;101755.94;6166697;23;20482;-91
2022/10/03 14:17:11;;;;;;;26.23;4.77;;;;;;;29.33;nan;101752.72;6216747;23;20474;-93
2022/10/03 14:23:24;;;;;;;42.17;4.77;;;;;;;29.11;nan;101729.81;6217354;23;20390;-91
2022/10/03 14:33:55;;;;;;;26.93;5.27;;;;;;;29.10;nan;101730.94;6217311;23;20506;-92
2022/10/03 14:44:25;;;;;;;38.47;5.37;;;;;;;29.19;nan;101734.81;6217260;23;20375;-92
2022/10/03 14:50:37;;;;;;;28.77;5.97;;;;;;;29.13;nan;101719.09;6217630;23;20463;-92
2022/10/03 14:53:19;;;;;;;35.83;5.10;;;;;;;29.17;nan;101720.19;6141610;23;20406;-93
2022/10/03 14:56:24;;;;;;;25.00;4.93;;;;;;;29.13;nan;101725.56;6166877;23;20399;-92
2022/10/03 14:58:54;;;;;;;33.27;4.93;;;;;;;29.09;nan;101723.63;6191375;23;20470;-93
2022/10/03 15:05:38;;;;;;;31.17;5.40;;;;;;;29.09;nan;101730.09;6217077;23;20390;-93
2022/10/03 15:08:19;;;;;;;39.10;6.53;;;;;;;29.09;nan;101726.44;6190558;23;20410;-92
2022/10/03 15:11:36;;;;;;;38.53;5.50;;;;;;;29.08;nan;101727.59;6166170;23;20422;-92
2022/10/03 15:15:01;;;;;;;36.37;4.97;;;;;;;28.96;nan;101735.56;6191053;23;20490;-93
2022/10/03 15:17:59;;;;;;;39.20;5.47;;;;;;;28.88;nan;101737.88;6191296;23;20566;-93
2022/10/03 15:23:44;;;;;;;31.93;5.27;;;;;;;28.65;nan;101724.50;6217204;23;20396;-92
2022/10/03 15:26:25;;;;;;;29.37;5.40;;;;;;;28.70;nan;101738.53;6141658;23;20415;-90
2022/10/03 15:32:59;;;;;;;33.73;4.83;;;;;;;28.56;nan;101731.03;6216790;23;20846;-93
2022/10/03 15:35:58;;;;;;;29.90;4.80;;;;;;;28.51;nan;101729.06;6190758;23;20770;-91
2022/10/03 15:42:29;;;;;;;37.23;5.97;;;;;;;28.34;nan;101718.19;6216791;23;20382;-93
2022/10/03 15:45:37;;;;;;;25.80;4.93;;;;;;;28.37;nan;101734.50;6141439;23;20399;-93
2022/10/03 15:48:15;;;;;;;25.90;5.37;;;;;;;28.32;nan;101714.00;6166859;23;20858;-92
2022/10/03 15:51:02;;;;;;;28.23;5.37;;;;;;;28.23;nan;101721.38;6190403;23;20411;-91
2022/10/03 15:53:39;;;;;;;38.77;5.77;;;;;;;28.09;nan;101719.16;6166687;23;20412;-92
2022/10/03 15:59:58;;;;;;;35.67;5.60;;;;;;;27.88;nan;101714.72;6216665;23;20375;-94
2022/10/03 16:06:30;;;;;;;30.23;5.00;;;;;;;27.78;nan;101720.38;6216884;23;20379;-93
2022/10/03 16:09:21;;;;;;;35.33;5.97;;;;;;;27.71;nan;101715.03;6168410;23;20482;-94
2022/10/03 16:12:40;;;;;;;42.53;5.93;;;;;;;27.63;nan;101711.97;6190061;23;20421;-92
2022/10/03 16:15:54;;;;;;;34.10;4.90;;;;;;;27.48;nan;101704.41;6190624;23;20416;-93
2022/10/03 16:22:44;;;;;;;38.03;5.67;;;;;;;27.37;nan;101709.19;6235057;23;20374;-91
2022/10/03 16:25:55;;;;;;;30.93;5.23;;;;;;;27.31;nan;101713.13;6245694;23;20446;-92
2022/10/03 16:36:10;;;;;;;49.93;5.50;;;;;;;26.76;nan;101697.06;6247079;23;20735;-94
2022/10/03 16:39:11;;;;;;;42.50;5.40;;;;;;;26.67;nan;101694.00;6198173;23;20399;-93
2022/10/03 16:41:41;;;;;;;26.47;4.50;;;;;;;26.57;nan;101705.19;6225972;23;20447;-94
2022/10/03 16:44:56;;;;;;;39.30;5.60;;;;;;;26.52;nan;101724.81;6198196;23;20767;-93
2022/10/03 16:47:40;;;;;;;32.60;6.43;;;;;;;26.40;nan;101743.84;6223243;23;20521;-95
2022/10/03 16:50:43;;;;;;;35.23;5.00;;;;;;;26.23;nan;101738.41;6246504;23;20461;-96